createdAt,value
2023-05-12T00:00:37.232Z,3.28
2023-05-12T00:03:05.406Z,2.05
2023-05-12T00:05:34.551Z,3.03
2023-05-12T00:08:02.029Z,2.20
2023-05-12T00:10:29.500Z,2.58
2023-05-12T00:12:57.334Z,2.40
2023-05-12T00:15:25.091Z,2.22
2023-05-12T00:17:53.104Z,2.67
2023-05-12T00:20:21.060Z,2.47
2023-05-12T00:22:48.744Z,2.83
2023-05-12T00:25:16.472Z,2.53
2023-05-12T00:27:43.970Z,2.65
2023-05-12T00:30:12.277Z,4.15
2023-05-12T00:32:39.903Z,2.38
2023-05-12T00:35:07.556Z,2.33
2023-05-12T00:37:35.082Z,2.28
2023-05-12T00:40:02.606Z,2.55
2023-05-12T00:42:30.151Z,2.75
2023-05-12T00:44:57.612Z,2.00
2023-05-12T00:47:25.315Z,2.38
2023-05-12T00:49:52.795Z,2.97
2023-05-12T00:52:20.838Z,2.65
2023-05-12T00:54:49.281Z,3.10
2023-05-12T00:57:17.034Z,2.47
2023-05-12T00:59:44.755Z,4.13
2023-05-12T01:02:12.309Z,4.00
2023-05-12T01:04:40.238Z,3.10
2023-05-12T01:07:10.762Z,4.47
2023-05-12T01:09:38.212Z,6.43
2023-05-12T01:12:06.420Z,2.63
2023-05-12T01:14:34.841Z,2.42
2023-05-12T01:17:04.205Z,2.15
2023-05-12T01:19:46.850Z,3.25
2023-05-12T01:24:55.725Z,2.40
2023-05-12T01:27:24.408Z,2.05
2023-05-12T01:29:52.403Z,2.47
2023-05-12T01:32:20.212Z,3.30
2023-05-12T01:34:47.966Z,2.42
2023-05-12T01:37:15.528Z,3.00
2023-05-12T01:39:43.284Z,2.63
2023-05-12T01:42:12.580Z,3.47
2023-05-12T01:44:40.099Z,2.50
2023-05-12T01:47:10.520Z,2.20
2023-05-12T01:49:41.008Z,2.58
2023-05-12T01:52:09.175Z,2.45
2023-05-12T01:54:39.526Z,3.42
2023-05-12T01:57:07.019Z,2.38
2023-05-12T01:59:34.493Z,3.38
2023-05-12T02:02:02.044Z,2.50
2023-05-12T02:04:29.807Z,3.00
2023-05-12T02:06:58.116Z,3.15
2023-05-12T02:09:25.612Z,3.50
2023-05-12T02:11:53.135Z,3.45
2023-05-12T02:14:20.640Z,2.90
2023-05-12T02:16:51.215Z,2.58
2023-05-12T02:19:18.988Z,2.28
2023-05-12T02:21:47.037Z,3.65
2023-05-12T02:24:15.107Z,3.40
2023-05-12T02:26:42.666Z,3.47
2023-05-12T02:29:11.535Z,3.33
2023-05-12T02:31:39.204Z,3.58
2023-05-12T02:34:07.416Z,2.50
2023-05-12T02:36:34.948Z,3.10
2023-05-12T02:39:02.635Z,3.10
2023-05-12T02:41:30.121Z,4.30
2023-05-12T02:43:57.632Z,2.42
2023-05-12T02:46:25.143Z,3.78
2023-05-12T02:48:52.786Z,2.65
2023-05-12T02:51:20.421Z,2.70
2023-05-12T02:53:47.858Z,3.50
2023-05-12T02:56:18.252Z,2.30
2023-05-12T02:58:46.527Z,2.83
2023-05-12T03:01:14.129Z,4.13
2023-05-12T03:03:41.953Z,3.03
2023-05-12T03:06:10.097Z,3.33
2023-05-12T03:08:37.626Z,2.88
2023-05-12T03:11:05.208Z,2.47
2023-05-12T03:13:32.789Z,3.88
2023-05-12T03:16:01.961Z,2.90
2023-05-12T03:18:29.797Z,3.28
2023-05-12T03:20:57.424Z,1.92
2023-05-12T03:23:25.384Z,3.17
2023-05-12T03:25:52.979Z,2.47
2023-05-12T03:28:20.481Z,3.05
2023-05-12T03:30:48.076Z,3.28
2023-05-12T03:33:15.711Z,3.70
2023-05-12T03:35:43.177Z,3.13
2023-05-12T03:38:10.817Z,3.45
2023-05-12T03:40:38.683Z,2.97
2023-05-12T03:43:06.311Z,2.78
2023-05-12T03:45:33.724Z,3.03
2023-05-12T03:48:01.306Z,2.80
2023-05-12T03:50:28.980Z,4.38
2023-05-12T03:52:56.869Z,2.80
2023-05-12T03:55:24.526Z,3.45
2023-05-12T03:57:52.261Z,2.83
2023-05-12T04:00:20.520Z,3.35
2023-05-12T04:02:48.334Z,3.80
2023-05-12T04:05:15.957Z,2.42
2023-05-12T04:07:43.727Z,3.15
2023-05-12T04:10:11.612Z,2.80
2023-05-12T04:12:39.347Z,2.72
2023-05-12T04:15:07.503Z,2.60
2023-05-12T04:17:38.271Z,2.22
2023-05-12T04:20:05.966Z,3.38
2023-05-12T04:22:33.659Z,2.85
2023-05-12T04:25:01.208Z,3.40
2023-05-12T04:27:28.661Z,2.17
2023-05-12T04:29:56.214Z,2.83
2023-05-12T04:32:23.699Z,2.20
2023-05-12T04:34:52.271Z,3.05
2023-05-12T04:37:19.731Z,3.33
2023-05-12T04:39:47.204Z,2.70
2023-05-12T04:42:14.823Z,2.75
2023-05-12T04:44:42.326Z,2.60
2023-05-12T04:47:09.884Z,2.35
2023-05-12T04:49:37.363Z,2.42
2023-05-12T04:52:06.140Z,2.20
2023-05-12T04:54:33.681Z,3.28
2023-05-12T04:57:01.141Z,2.67
2023-05-12T04:59:29.137Z,3.10
2023-05-12T05:01:56.726Z,2.63
2023-05-12T05:04:24.267Z,3.25
2023-05-12T05:06:51.882Z,3.15
2023-05-12T05:09:19.393Z,2.35
2023-05-12T05:11:46.848Z,3.80
2023-05-12T05:14:14.406Z,2.45
2023-05-12T05:16:42.139Z,2.63
2023-05-12T05:19:19.578Z,2.95
2023-05-12T05:21:50.209Z,2.45
2023-05-12T05:24:17.676Z,3.05
2023-05-12T05:26:46.414Z,2.88
2023-05-12T05:29:14.176Z,2.50
2023-05-12T05:31:41.711Z,3.10
2023-05-12T05:34:09.212Z,2.40
2023-05-12T05:36:36.754Z,2.28
2023-05-12T05:39:04.300Z,2.85
2023-05-12T05:41:31.986Z,2.78
2023-05-12T05:43:59.420Z,3.38
2023-05-12T05:46:27.107Z,3.38
2023-05-12T05:48:55.559Z,2.78
2023-05-12T05:51:23.236Z,3.17
2023-05-12T05:53:50.702Z,4.28
2023-05-12T05:56:18.132Z,2.47
2023-05-12T05:58:45.639Z,3.60
2023-05-12T06:01:13.183Z,2.22
2023-05-12T06:03:40.743Z,3.38
2023-05-12T06:06:10.970Z,2.55
2023-05-12T06:08:38.422Z,2.58
2023-05-12T06:11:06.038Z,3.55
2023-05-12T06:13:33.690Z,2.20
2023-05-12T06:16:01.279Z,2.30
2023-05-12T06:18:28.791Z,2.97
2023-05-12T06:20:56.336Z,2.20
2023-05-12T06:23:24.118Z,3.38
2023-05-12T06:25:51.584Z,2.90
2023-05-12T06:28:19.028Z,2.58
2023-05-12T06:30:46.635Z,3.92
2023-05-12T06:33:14.149Z,2.60
2023-05-12T06:35:41.872Z,3.08
2023-05-12T06:38:09.490Z,2.22
2023-05-12T06:40:37.123Z,2.42
2023-05-12T06:43:04.734Z,3.42
2023-05-12T06:45:32.422Z,2.85
2023-05-12T06:48:00.673Z,3.00
2023-05-12T06:50:28.364Z,2.60
2023-05-12T06:52:55.810Z,2.53
2023-05-12T06:55:23.881Z,3.30
2023-05-12T06:57:56.353Z,2.95
2023-05-12T07:00:24.791Z,3.95
2023-05-12T07:02:52.927Z,3.80
2023-05-12T07:05:21.138Z,3.97
2023-05-12T07:07:48.975Z,3.28
2023-05-12T07:10:16.760Z,4.05
2023-05-12T07:12:44.330Z,3.53
2023-05-12T07:15:16.615Z,3.85
2023-05-12T07:17:44.186Z,4.70
2023-05-12T07:20:11.771Z,4.18
2023-05-12T07:22:39.337Z,3.45
2023-05-12T07:25:08.415Z,3.83
2023-05-12T07:27:36.234Z,4.18
2023-05-12T07:30:03.745Z,4.22
2023-05-12T07:32:31.444Z,3.90
2023-05-12T07:34:58.901Z,2.72
2023-05-12T07:37:26.817Z,4.80
2023-05-12T07:39:54.357Z,4.15
2023-05-12T07:42:22.969Z,3.42
2023-05-12T07:44:50.676Z,2.53
2023-05-12T07:47:18.344Z,3.78
2023-05-12T07:49:45.988Z,3.30
2023-05-12T07:52:13.486Z,4.55
2023-05-12T07:54:41.863Z,4.60
2023-05-12T07:57:09.519Z,4.07
2023-05-12T07:59:37.264Z,3.50
2023-05-12T08:02:04.888Z,3.45
2023-05-12T08:04:32.325Z,4.07
2023-05-12T08:07:00.375Z,4.70
2023-05-12T08:09:28.864Z,3.70
2023-05-12T08:11:56.552Z,3.78
2023-05-12T08:14:26.212Z,4.60
2023-05-12T08:16:53.769Z,3.17
2023-05-12T08:19:22.075Z,3.72
2023-05-12T08:21:50.745Z,3.38
2023-05-12T08:24:18.486Z,4.18
2023-05-12T08:26:46.127Z,3.38
2023-05-12T08:29:13.859Z,3.83
2023-05-12T08:31:41.453Z,4.15
2023-05-12T08:34:10.785Z,3.05
2023-05-12T08:36:41.932Z,3.88
2023-05-12T08:39:12.889Z,4.80
2023-05-12T08:41:44.656Z,4.60
2023-05-12T08:44:12.682Z,4.30
2023-05-12T08:46:40.465Z,4.03
2023-05-12T08:49:12.843Z,3.63
2023-05-12T08:51:42.407Z,3.95
2023-05-12T08:54:11.233Z,3.45
2023-05-12T08:59:10.496Z,3.83
2023-05-12T09:01:39.119Z,4.15
2023-05-12T09:04:06.961Z,5.00
2023-05-12T09:06:34.653Z,3.55
2023-05-12T09:09:02.526Z,3.90
2023-05-12T09:11:30.171Z,3.60
2023-05-12T09:14:04.569Z,5.40
2023-05-12T09:16:36.467Z,3.67
2023-05-12T09:19:06.896Z,4.30
2023-05-12T09:21:34.941Z,6.20
2023-05-12T09:24:09.950Z,5.25
2023-05-12T09:26:51.193Z,4.70
2023-05-12T09:29:30.784Z,4.43
2023-05-12T09:32:00.232Z,4.18
2023-05-12T09:34:31.605Z,4.97
2023-05-12T09:37:00.389Z,3.92
2023-05-12T09:39:27.828Z,4.47
2023-05-12T09:41:55.824Z,4.53
2023-05-12T09:44:24.187Z,5.13
2023-05-12T09:46:52.782Z,3.83
2023-05-12T09:49:26.285Z,5.82
2023-05-12T09:51:57.478Z,5.47
2023-05-12T09:54:28.943Z,3.55
2023-05-12T09:57:00.511Z,4.63
2023-05-12T09:59:35.239Z,3.95
2023-05-12T10:02:05.287Z,4.25
2023-05-12T10:04:46.157Z,4.28
2023-05-12T10:07:14.317Z,3.58
2023-05-12T10:09:42.978Z,4.88
2023-05-12T10:12:11.059Z,5.38
2023-05-12T10:14:38.859Z,6.32
2023-05-12T10:17:07.465Z,6.20
2023-05-12T10:19:36.302Z,3.35
2023-05-12T10:22:04.572Z,7.55
2023-05-12T10:24:32.323Z,6.63
2023-05-12T10:27:02.510Z,7.35
2023-05-12T10:29:31.668Z,7.07
2023-05-12T10:31:59.591Z,5.18
2023-05-12T10:34:31.357Z,6.82
2023-05-12T10:36:59.156Z,4.82
2023-05-12T10:39:30.620Z,6.53
2023-05-12T10:42:10.858Z,6.60
2023-05-12T10:44:58.630Z,7.30
2023-05-12T10:47:29.928Z,6.75
2023-05-12T10:50:01.521Z,5.88
2023-05-12T10:52:29.145Z,6.63
2023-05-12T10:55:03.293Z,11.88
2023-05-12T10:57:33.461Z,9.10
2023-05-12T11:00:03.550Z,6.25
2023-05-12T11:02:34.497Z,8.18
2023-05-12T11:05:13.165Z,11.43
2023-05-12T11:07:49.991Z,4.75
2023-05-12T11:12:45.917Z,5.15
2023-05-12T11:15:14.665Z,7.05
2023-05-12T11:17:43.283Z,6.97
2023-05-12T11:20:11.305Z,19.33
2023-05-12T11:22:41.526Z,7.32
2023-05-12T11:25:12.744Z,4.60
2023-05-12T11:27:43.144Z,6.47
2023-05-12T11:30:11.795Z,6.40
2023-05-12T11:32:39.305Z,5.63
2023-05-12T11:35:17.359Z,6.50
2023-05-12T11:37:48.515Z,5.03
2023-05-12T11:40:20.782Z,4.75
2023-05-12T11:42:56.747Z,5.38
2023-05-12T11:45:25.856Z,5.95
2023-05-12T11:47:54.437Z,5.10
2023-05-12T11:50:25.348Z,4.28
2023-05-12T11:52:55.419Z,4.68
2023-05-12T11:55:24.397Z,4.28
2023-05-12T11:57:59.506Z,4.78
2023-05-12T12:00:35.932Z,5.22
2023-05-12T12:03:10.220Z,6.50
2023-05-12T12:05:38.386Z,4.65
2023-05-12T12:08:07.334Z,4.93
2023-05-12T12:10:34.893Z,5.70
2023-05-12T12:13:02.904Z,5.20
2023-05-12T12:15:30.397Z,6.07
2023-05-12T12:17:58.437Z,7.43
2023-05-12T12:20:25.944Z,4.85
2023-05-12T12:22:54.007Z,4.55
2023-05-12T12:25:22.430Z,5.82
2023-05-12T12:27:50.233Z,6.57
2023-05-12T12:30:17.795Z,7.35
2023-05-12T12:32:46.359Z,5.97
2023-05-12T12:35:16.159Z,6.15
2023-05-12T12:37:43.664Z,6.65
2023-05-12T12:40:12.061Z,5.15
2023-05-12T12:42:41.489Z,5.25
2023-05-12T12:45:09.378Z,4.82
2023-05-12T12:47:38.187Z,5.97
2023-05-12T12:50:08.105Z,6.35
2023-05-12T12:52:35.614Z,5.43
2023-05-12T12:55:03.512Z,6.70
2023-05-12T12:57:30.978Z,7.35
2023-05-12T12:59:58.546Z,8.55
2023-05-12T13:02:26.339Z,8.25
2023-05-12T13:04:53.923Z,7.72
2023-05-12T13:07:21.571Z,8.95
2023-05-12T13:09:49.154Z,8.55
2023-05-12T13:12:16.780Z,8.00
2023-05-12T13:14:44.227Z,8.52
2023-05-12T13:17:11.719Z,10.48
2023-05-12T13:19:39.302Z,7.05
2023-05-12T13:22:06.864Z,7.97
2023-05-12T13:24:34.367Z,6.43
2023-05-12T13:27:02.632Z,8.60
2023-05-12T13:29:30.113Z,8.40
2023-05-12T13:31:57.863Z,7.70
2023-05-12T13:34:25.402Z,7.50
2023-05-12T13:36:53.004Z,8.25
2023-05-12T13:39:20.636Z,6.65
2023-05-12T13:41:48.092Z,8.45
2023-05-12T13:44:15.558Z,6.18
2023-05-12T13:46:43.219Z,6.22
2023-05-12T13:49:10.618Z,6.63
2023-05-12T13:51:38.015Z,5.88
2023-05-12T13:54:05.458Z,5.63
2023-05-12T13:56:32.952Z,6.05
2023-05-12T13:59:00.423Z,4.88
2023-05-12T14:01:27.997Z,6.80
2023-05-12T14:03:55.377Z,5.55
2023-05-12T14:06:22.783Z,6.55
2023-05-12T14:08:52.327Z,5.18
2023-05-12T14:11:19.801Z,6.50
2023-05-12T14:13:47.536Z,5.43
2023-05-12T14:16:15.015Z,4.63
2023-05-12T14:18:43.714Z,4.00
2023-05-12T14:21:11.788Z,4.22
2023-05-12T14:23:39.228Z,4.25
2023-05-12T14:26:06.702Z,5.28
2023-05-12T14:28:34.280Z,4.15
2023-05-12T14:31:03.600Z,4.97
2023-05-12T14:33:34.411Z,4.93
2023-05-12T14:36:07.185Z,5.00
2023-05-12T14:38:35.759Z,5.82
2023-05-12T14:41:03.215Z,4.38
2023-05-12T14:43:30.885Z,3.88
2023-05-12T14:45:58.498Z,5.15
2023-05-12T14:48:29.089Z,4.53
2023-05-12T14:50:57.198Z,4.60
2023-05-12T14:53:24.902Z,4.40
2023-05-12T14:55:52.778Z,3.60
2023-05-12T14:58:22.157Z,5.00
2023-05-12T15:00:51.142Z,3.85
2023-05-12T15:03:20.069Z,3.63
2023-05-12T15:08:21.970Z,5.38
2023-05-12T15:10:49.545Z,3.65
2023-05-12T15:13:19.202Z,5.25
2023-05-12T15:15:47.455Z,4.05
2023-05-12T15:18:15.000Z,4.20
2023-05-12T15:20:42.682Z,5.95
2023-05-12T15:23:10.421Z,4.35
2023-05-12T15:25:41.823Z,5.45
2023-05-12T15:28:09.529Z,5.30
2023-05-12T15:30:36.978Z,5.05
2023-05-12T15:33:04.888Z,5.80
2023-05-12T15:35:32.931Z,5.38
2023-05-12T15:38:00.570Z,5.15
2023-05-12T15:40:28.104Z,7.38
2023-05-12T15:42:55.945Z,5.13
2023-05-12T15:45:24.301Z,5.88
2023-05-12T15:47:51.823Z,5.30
2023-05-12T15:50:23.313Z,5.85
2023-05-12T15:52:51.024Z,5.73
2023-05-12T15:55:19.428Z,6.18
2023-05-12T15:57:47.346Z,6.30
2023-05-12T16:00:15.210Z,5.63
2023-05-12T16:02:46.126Z,5.22
2023-05-12T16:05:13.679Z,6.22
2023-05-12T16:07:41.192Z,5.32
2023-05-12T16:10:08.800Z,6.25
2023-05-12T16:12:36.284Z,6.35
2023-05-12T16:15:05.729Z,6.40
2023-05-12T16:17:34.170Z,7.65
2023-05-12T16:20:06.818Z,6.00
2023-05-12T16:22:34.636Z,5.43
2023-05-12T16:25:02.140Z,6.78
2023-05-12T16:27:30.080Z,7.07
2023-05-12T16:29:57.578Z,4.43
2023-05-12T16:32:25.251Z,6.50
2023-05-12T16:34:52.763Z,6.20
2023-05-12T16:37:20.375Z,4.00
2023-05-12T16:39:47.763Z,4.18
2023-05-12T16:42:15.593Z,4.50
2023-05-12T16:44:43.626Z,5.63
2023-05-12T16:47:11.474Z,4.43
2023-05-12T16:49:39.139Z,7.90
2023-05-12T16:52:08.733Z,3.92
2023-05-12T16:54:37.041Z,4.25
2023-05-12T16:57:04.766Z,3.97
2023-05-12T16:59:33.171Z,4.43
2023-05-12T17:02:00.901Z,6.07
2023-05-12T17:04:28.454Z,7.05
2023-05-12T17:06:55.960Z,5.93
2023-05-12T17:09:26.036Z,5.05
2023-05-12T17:11:53.930Z,5.35
2023-05-12T17:14:21.930Z,6.07
2023-05-12T17:16:49.383Z,6.55
2023-05-12T17:19:17.297Z,5.93
2023-05-12T17:21:44.765Z,5.45
2023-05-12T17:24:12.257Z,4.65
2023-05-12T17:26:40.033Z,4.65
2023-05-12T17:29:07.517Z,3.50
2023-05-12T17:31:34.992Z,3.13
2023-05-12T17:34:02.545Z,4.60
2023-05-12T17:36:30.305Z,4.20
2023-05-12T17:38:57.930Z,3.92
2023-05-12T17:41:27.023Z,3.67
2023-05-12T17:43:56.173Z,4.28
2023-05-12T17:46:23.703Z,4.15
2023-05-12T17:48:51.396Z,4.85
2023-05-12T17:51:18.849Z,3.75
2023-05-12T17:53:46.868Z,4.15
2023-05-12T17:56:14.553Z,4.63
2023-05-12T17:58:43.080Z,3.13
2023-05-12T18:01:10.623Z,3.45
2023-05-12T18:03:38.767Z,4.63
2023-05-12T18:06:06.421Z,4.40
2023-05-12T18:08:33.981Z,3.60
2023-05-12T18:11:01.942Z,3.38
2023-05-12T18:13:29.363Z,4.55
2023-05-12T18:15:57.177Z,4.85
2023-05-12T18:18:24.786Z,3.33
2023-05-12T18:20:52.253Z,4.07
2023-05-12T18:23:19.722Z,3.28
2023-05-12T18:25:49.913Z,5.38
2023-05-12T18:28:20.245Z,3.75
2023-05-12T18:30:47.980Z,4.43
2023-05-12T18:33:15.535Z,4.43
2023-05-12T18:35:43.037Z,4.22
2023-05-12T18:38:10.559Z,3.78
2023-05-12T18:40:39.512Z,2.90
2023-05-12T18:43:07.188Z,3.22
2023-05-12T18:45:34.666Z,3.53
2023-05-12T18:48:02.205Z,2.97
2023-05-12T18:50:30.682Z,3.63
2023-05-12T18:52:58.461Z,3.25
2023-05-12T18:55:25.913Z,3.83
2023-05-12T18:57:53.676Z,4.32
2023-05-12T19:00:26.650Z,3.55
2023-05-12T19:02:54.210Z,4.35
2023-05-12T19:05:21.990Z,3.40
2023-05-12T19:07:49.710Z,3.03
2023-05-12T19:10:17.328Z,3.80
2023-05-12T19:12:45.045Z,3.88
2023-05-12T19:15:12.700Z,3.75
2023-05-12T19:17:40.184Z,3.47
2023-05-12T19:20:08.029Z,4.38
2023-05-12T19:22:36.140Z,3.13
2023-05-12T19:25:04.945Z,4.57
2023-05-12T19:27:32.412Z,3.97
2023-05-12T19:30:00.177Z,3.85
2023-05-12T19:32:27.689Z,4.38
2023-05-12T19:34:56.685Z,3.60
2023-05-12T19:37:24.222Z,5.05
2023-05-12T19:39:52.235Z,4.10
2023-05-12T19:42:23.436Z,3.50
2023-05-12T19:44:51.231Z,3.70
2023-05-12T19:47:19.911Z,3.30
2023-05-12T19:49:47.529Z,3.30
2023-05-12T19:52:15.047Z,3.88
2023-05-12T19:54:42.539Z,3.88
2023-05-12T19:57:10.246Z,3.13
2023-05-12T19:59:38.008Z,3.28
2023-05-12T20:02:06.621Z,3.25
2023-05-12T20:04:34.045Z,4.22
2023-05-12T20:07:01.467Z,4.30
2023-05-12T20:09:31.652Z,6.15
2023-05-12T20:11:59.877Z,4.28
2023-05-12T20:14:27.553Z,4.63
2023-05-12T20:16:56.392Z,3.83
2023-05-12T20:19:23.914Z,3.90
2023-05-12T20:21:51.703Z,3.20
2023-05-12T20:24:19.256Z,3.40
2023-05-12T20:26:46.815Z,3.67
2023-05-12T20:29:21.223Z,3.83
2023-05-12T20:31:49.835Z,3.50
2023-05-12T20:34:17.720Z,3.30
2023-05-12T20:36:48.658Z,3.45
2023-05-12T20:39:16.252Z,3.92
2023-05-12T20:41:44.459Z,5.00
2023-05-12T20:44:11.920Z,4.70
2023-05-12T20:46:41.151Z,11.82
2023-05-12T20:49:08.794Z,4.95
2023-05-12T20:51:36.417Z,5.65
2023-05-12T20:54:06.170Z,4.80
2023-05-12T20:56:33.669Z,4.03
2023-05-12T20:59:01.186Z,4.72
2023-05-12T21:01:28.657Z,5.28
2023-05-12T21:03:56.215Z,3.58
2023-05-12T21:06:23.753Z,5.18
2023-05-12T21:08:51.309Z,4.30
2023-05-12T21:11:19.263Z,6.65
2023-05-12T21:13:50.089Z,4.30
2023-05-12T21:16:17.547Z,3.72
2023-05-12T21:18:45.047Z,4.15
2023-05-12T21:21:13.065Z,3.50
2023-05-12T21:23:41.164Z,4.70
2023-05-12T21:26:10.866Z,4.53
2023-05-12T21:28:38.354Z,3.97
2023-05-12T21:31:06.378Z,5.07
2023-05-12T21:33:34.398Z,4.13
2023-05-12T21:36:04.714Z,4.50
2023-05-12T21:38:33.163Z,3.38
2023-05-12T21:41:01.050Z,3.42
2023-05-12T21:43:28.597Z,4.28
2023-05-12T21:45:56.058Z,3.67
2023-05-12T21:48:23.703Z,3.47
2023-05-12T21:50:58.534Z,3.67
2023-05-12T21:53:26.071Z,3.30
2023-05-12T21:55:53.778Z,3.10
2023-05-12T21:58:21.688Z,4.40
2023-05-12T22:00:49.471Z,3.55
2023-05-12T22:03:17.115Z,3.55
2023-05-12T22:05:45.591Z,2.78
2023-05-12T22:08:13.111Z,3.10
2023-05-12T22:10:40.719Z,3.50
2023-05-12T22:13:08.343Z,3.72
2023-05-12T22:15:35.999Z,4.00
2023-05-12T22:18:03.793Z,3.13
2023-05-12T22:20:31.650Z,3.33
2023-05-12T22:23:00.185Z,3.10
2023-05-12T22:25:28.470Z,4.43
2023-05-12T22:27:56.176Z,3.70
2023-05-12T22:30:24.448Z,7.38
2023-05-12T22:32:52.798Z,4.40
2023-05-12T22:35:21.362Z,4.43
2023-05-12T22:37:50.607Z,3.53
2023-05-12T22:40:18.320Z,3.50
2023-05-12T22:42:46.754Z,3.47
2023-05-12T22:45:14.256Z,3.70
2023-05-12T22:47:42.044Z,3.58
2023-05-12T22:50:09.717Z,4.57
2023-05-12T22:52:37.154Z,4.68
2023-05-12T22:55:04.747Z,4.68
2023-05-12T22:57:32.255Z,5.05
2023-05-12T23:00:00.155Z,4.78
2023-05-12T23:02:27.718Z,6.55
2023-05-12T23:04:55.516Z,4.90
2023-05-12T23:07:23.019Z,5.55
2023-05-12T23:09:50.489Z,6.15
2023-05-12T23:12:18.035Z,4.65
2023-05-12T23:14:45.459Z,4.82
2023-05-12T23:17:13.126Z,5.90
2023-05-12T23:19:40.869Z,5.55
2023-05-12T23:22:08.332Z,5.97
2023-05-12T23:24:36.722Z,4.45
2023-05-12T23:27:04.292Z,4.35
2023-05-12T23:29:31.951Z,5.55
2023-05-12T23:31:59.525Z,3.88
2023-05-12T23:34:27.199Z,3.22
2023-05-12T23:36:55.354Z,3.92
2023-05-12T23:39:22.861Z,4.13
2023-05-12T23:41:50.482Z,3.40
2023-05-12T23:44:18.614Z,4.05
2023-05-12T23:46:46.347Z,3.80
2023-05-12T23:49:13.931Z,4.30
2023-05-12T23:51:41.433Z,2.95
2023-05-12T23:54:09.067Z,4.03
2023-05-12T23:56:40.271Z,3.45
2023-05-12T23:59:07.745Z,4.47
